sensor_id;sensor_type;location;lat;lon;timestamp;temperature;humidity
21811;DHT22;11067;48.788;9.208;2022-08-02T00:01:20;18.90;99.90
21811;DHT22;11067;48.788;9.208;2022-08-02T00:03:46;18.90;99.90
21811;DHT22;11067;48.788;9.208;2022-08-02T00:06:12;18.90;99.90
21811;DHT22;11067;48.788;9.208;2022-08-02T00:08:37;18.80;99.90
21811;DHT22;11067;48.788;9.208;2022-08-02T00:11:03;18.90;99.90
21811;DHT22;11067;48.788;9.208;2022-08-02T00:13:28;18.90;99.90
21811;DHT22;11067;48.788;9.208;2022-08-02T00:15:54;18.90;99.90
21811;DHT22;11067;48.788;9.208;2022-08-02T00:18:19;19.00;99.90
21811;DHT22;11067;48.788;9.208;2022-08-02T00:20:45;19.00;99.90
21811;DHT22;11067;48.788;9.208;2022-08-02T00:23:11;19.00;99.90
21811;DHT22;11067;48.788;9.208;2022-08-02T00:25:36;19.00;99.90
21811;DHT22;11067;48.788;9.208;2022-08-02T00:28:02;19.00;99.90
21811;DHT22;11067;48.788;9.208;2022-08-02T00:30:27;19.00;99.90
21811;DHT22;11067;48.788;9.208;2022-08-02T00:32:53;19.20;99.90
21811;DHT22;11067;48.788;9.208;2022-08-02T00:35:18;19.30;99.90
21811;DHT22;11067;48.788;9.208;2022-08-02T00:37:44;19.40;99.90
21811;DHT22;11067;48.788;9.208;2022-08-02T00:40:10;19.50;99.90
21811;DHT22;11067;48.788;9.208;2022-08-02T00:42:38;19.60;99.90
21811;DHT22;11067;48.788;9.208;2022-08-02T00:45:04;19.50;99.90
21811;DHT22;11067;48.788;9.208;2022-08-02T00:47:29;19.50;99.90
21811;DHT22;11067;48.788;9.208;2022-08-02T00:49:55;19.50;99.90
21811;DHT22;11067;48.788;9.208;2022-08-02T00:52:24;19.50;99.90
21811;DHT22;11067;48.788;9.208;2022-08-02T00:54:49;19.50;99.90
21811;DHT22;11067;48.788;9.208;2022-08-02T00:57:15;19.50;99.90
21811;DHT22;11067;48.788;9.208;2022-08-02T00:59:41;19.50;99.90
21811;DHT22;11067;48.788;9.208;2022-08-02T01:02:07;19.50;99.90
21811;DHT22;11067;48.788;9.208;2022-08-02T01:04:33;19.50;99.90
21811;DHT22;11067;48.788;9.208;2022-08-02T01:06:59;19.40;99.90
21811;DHT22;11067;48.788;9.208;2022-08-02T01:09:25;19.40;99.90
21811;DHT22;11067;48.788;9.208;2022-08-02T01:11:51;19.40;99.90
21811;DHT22;11067;48.788;9.208;2022-08-02T01:14:17;19.40;99.90
21811;DHT22;11067;48.788;9.208;2022-08-02T01:16:53;19.30;99.90
21811;DHT22;11067;48.788;9.208;2022-08-02T01:19:45;19.20;99.90
21811;DHT22;11067;48.788;9.208;2022-08-02T01:22:54;19.10;99.90
21811;DHT22;11067;48.788;9.208;2022-08-02T01:25:28;19.00;99.90
21811;DHT22;11067;48.788;9.208;2022-08-02T01:28:22;19.00;99.90
21811;DHT22;11067;48.788;9.208;2022-08-02T01:30:57;19.00;99.90
21811;DHT22;11067;48.788;9.208;2022-08-02T01:33:31;18.90;99.90
21811;DHT22;11067;48.788;9.208;2022-08-02T01:36:00;19.00;99.90
21811;DHT22;11067;48.788;9.208;2022-08-02T01:38:34;19.20;99.90
21811;DHT22;11067;48.788;9.208;2022-08-02T01:41:03;19.30;99.90
21811;DHT22;11067;48.788;9.208;2022-08-02T01:43:30;19.30;99.90
21811;DHT22;11067;48.788;9.208;2022-08-02T01:45:58;19.30;99.90
21811;DHT22;11067;48.788;9.208;2022-08-02T01:48:26;19.30;99.90
21811;DHT22;11067;48.788;9.208;2022-08-02T01:50:53;19.40;99.90
21811;DHT22;11067;48.788;9.208;2022-08-02T01:53:20;19.40;99.90
21811;DHT22;11067;48.788;9.208;2022-08-02T01:55:49;19.50;99.90
21811;DHT22;11067;48.788;9.208;2022-08-02T01:58:17;19.50;99.90
21811;DHT22;11067;48.788;9.208;2022-08-02T02:00:45;19.40;99.90
21811;DHT22;11067;48.788;9.208;2022-08-02T02:03:18;19.40;99.90
21811;DHT22;11067;48.788;9.208;2022-08-02T02:05:46;19.40;99.90
21811;DHT22;11067;48.788;9.208;2022-08-02T02:08:13;19.30;99.90
21811;DHT22;11067;48.788;9.208;2022-08-02T02:10:41;19.30;99.90
21811;DHT22;11067;48.788;9.208;2022-08-02T02:13:12;19.20;99.90
21811;DHT22;11067;48.788;9.208;2022-08-02T02:15:45;19.20;99.90
21811;DHT22;11067;48.788;9.208;2022-08-02T02:18:16;19.10;99.90
21811;DHT22;11067;48.788;9.208;2022-08-02T02:20:43;19.10;99.90
21811;DHT22;11067;48.788;9.208;2022-08-02T02:23:10;19.20;99.90
21811;DHT22;11067;48.788;9.208;2022-08-02T02:25:39;19.10;99.90
21811;DHT22;11067;48.788;9.208;2022-08-02T02:28:34;19.00;99.90
21811;DHT22;11067;48.788;9.208;2022-08-02T02:31:05;18.90;99.90
21811;DHT22;11067;48.788;9.208;2022-08-02T02:33:34;18.90;99.90
21811;DHT22;11067;48.788;9.208;2022-08-02T02:36:01;18.80;99.90
21811;DHT22;11067;48.788;9.208;2022-08-02T02:38:30;18.70;99.90
21811;DHT22;11067;48.788;9.208;2022-08-02T02:40:58;18.60;99.90
21811;DHT22;11067;48.788;9.208;2022-08-02T02:43:27;18.60;99.90
21811;DHT22;11067;48.788;9.208;2022-08-02T02:45:55;18.50;99.90
21811;DHT22;11067;48.788;9.208;2022-08-02T02:48:21;18.50;99.90
21811;DHT22;11067;48.788;9.208;2022-08-02T02:50:47;18.40;99.90
21811;DHT22;11067;48.788;9.208;2022-08-02T02:53:16;18.40;99.90
21811;DHT22;11067;48.788;9.208;2022-08-02T02:55:42;18.40;99.90
21811;DHT22;11067;48.788;9.208;2022-08-02T02:58:09;18.40;99.90
21811;DHT22;11067;48.788;9.208;2022-08-02T03:00:35;18.30;99.90
21811;DHT22;11067;48.788;9.208;2022-08-02T03:03:19;18.20;99.90
21811;DHT22;11067;48.788;9.208;2022-08-02T03:05:45;18.20;99.90
21811;DHT22;11067;48.788;9.208;2022-08-02T03:08:11;18.20;99.90
21811;DHT22;11067;48.788;9.208;2022-08-02T03:10:37;18.20;99.90
21811;DHT22;11067;48.788;9.208;2022-08-02T03:13:03;18.10;99.90
21811;DHT22;11067;48.788;9.208;2022-08-02T03:15:30;18.10;99.90
21811;DHT22;11067;48.788;9.208;2022-08-02T03:17:56;18.20;99.90
21811;DHT22;11067;48.788;9.208;2022-08-02T03:20:21;18.20;99.90
21811;DHT22;11067;48.788;9.208;2022-08-02T03:22:48;18.10;99.90
21811;DHT22;11067;48.788;9.208;2022-08-02T03:25:14;18.10;99.90
21811;DHT22;11067;48.788;9.208;2022-08-02T03:27:40;18.00;99.90
21811;DHT22;11067;48.788;9.208;2022-08-02T03:30:09;18.10;99.90
21811;DHT22;11067;48.788;9.208;2022-08-02T03:32:36;18.00;99.90
21811;DHT22;11067;48.788;9.208;2022-08-02T03:35:05;18.00;99.90
21811;DHT22;11067;48.788;9.208;2022-08-02T03:37:32;18.00;99.90
21811;DHT22;11067;48.788;9.208;2022-08-02T03:40:00;18.10;99.90
21811;DHT22;11067;48.788;9.208;2022-08-02T03:42:26;18.10;99.90
21811;DHT22;11067;48.788;9.208;2022-08-02T03:44:54;18.00;99.90
21811;DHT22;11067;48.788;9.208;2022-08-02T03:47:21;18.00;99.90
21811;DHT22;11067;48.788;9.208;2022-08-02T03:49:47;18.00;99.90
21811;DHT22;11067;48.788;9.208;2022-08-02T03:52:13;17.90;99.90
21811;DHT22;11067;48.788;9.208;2022-08-02T03:54:39;17.90;99.90
21811;DHT22;11067;48.788;9.208;2022-08-02T03:57:05;17.90;99.90
21811;DHT22;11067;48.788;9.208;2022-08-02T03:59:41;17.90;99.90
21811;DHT22;11067;48.788;9.208;2022-08-02T04:02:08;17.90;99.90
21811;DHT22;11067;48.788;9.208;2022-08-02T04:04:33;17.80;99.90
21811;DHT22;11067;48.788;9.208;2022-08-02T04:06:59;17.90;99.90
21811;DHT22;11067;48.788;9.208;2022-08-02T04:09:25;17.80;99.90
21811;DHT22;11067;48.788;9.208;2022-08-02T04:11:50;17.80;99.90
21811;DHT22;11067;48.788;9.208;2022-08-02T04:14:16;17.80;99.90
21811;DHT22;11067;48.788;9.208;2022-08-02T04:16:49;17.70;99.90
21811;DHT22;11067;48.788;9.208;2022-08-02T04:19:30;17.80;99.90
21811;DHT22;11067;48.788;9.208;2022-08-02T04:21:59;17.70;99.90
21811;DHT22;11067;48.788;9.208;2022-08-02T04:24:27;17.70;99.90
21811;DHT22;11067;48.788;9.208;2022-08-02T04:26:57;17.80;99.90
21811;DHT22;11067;48.788;9.208;2022-08-02T04:29:24;17.80;99.90
21811;DHT22;11067;48.788;9.208;2022-08-02T04:31:50;17.80;99.90
21811;DHT22;11067;48.788;9.208;2022-08-02T04:34:16;17.90;99.90
21811;DHT22;11067;48.788;9.208;2022-08-02T04:36:42;18.00;99.90
21811;DHT22;11067;48.788;9.208;2022-08-02T04:39:07;18.00;99.90
21811;DHT22;11067;48.788;9.208;2022-08-02T04:41:37;18.10;99.90
21811;DHT22;11067;48.788;9.208;2022-08-02T04:44:03;18.10;99.90
21811;DHT22;11067;48.788;9.208;2022-08-02T04:46:29;18.10;99.90
21811;DHT22;11067;48.788;9.208;2022-08-02T04:48:55;18.10;99.90
21811;DHT22;11067;48.788;9.208;2022-08-02T04:51:20;18.20;99.90
21811;DHT22;11067;48.788;9.208;2022-08-02T04:53:46;18.40;99.90
21811;DHT22;11067;48.788;9.208;2022-08-02T04:56:11;18.80;99.90
21811;DHT22;11067;48.788;9.208;2022-08-02T04:58:37;18.80;99.90
21811;DHT22;11067;48.788;9.208;2022-08-02T05:01:03;18.80;99.90
21811;DHT22;11067;48.788;9.208;2022-08-02T05:03:28;19.00;99.90
21811;DHT22;11067;48.788;9.208;2022-08-02T05:05:54;19.40;99.90
21811;DHT22;11067;48.788;9.208;2022-08-02T05:08:19;19.60;99.90
21811;DHT22;11067;48.788;9.208;2022-08-02T05:10:45;19.50;99.90
21811;DHT22;11067;48.788;9.208;2022-08-02T05:13:10;19.60;99.90
21811;DHT22;11067;48.788;9.208;2022-08-02T05:15:36;19.50;99.90
21811;DHT22;11067;48.788;9.208;2022-08-02T05:18:02;19.90;99.90
21811;DHT22;11067;48.788;9.208;2022-08-02T05:20:27;19.90;99.90
21811;DHT22;11067;48.788;9.208;2022-08-02T05:22:53;20.10;99.90
21811;DHT22;11067;48.788;9.208;2022-08-02T05:25:19;20.10;99.90
21811;DHT22;11067;48.788;9.208;2022-08-02T05:27:44;20.00;99.90
21811;DHT22;11067;48.788;9.208;2022-08-02T05:30:10;20.30;99.90
21811;DHT22;11067;48.788;9.208;2022-08-02T05:32:44;20.50;99.90
21811;DHT22;11067;48.788;9.208;2022-08-02T05:35:10;20.50;99.90
21811;DHT22;11067;48.788;9.208;2022-08-02T05:37:36;20.50;99.90
21811;DHT22;11067;48.788;9.208;2022-08-02T05:40:02;20.50;99.90
21811;DHT22;11067;48.788;9.208;2022-08-02T05:42:31;21.10;99.90
21811;DHT22;11067;48.788;9.208;2022-08-02T05:44:57;20.70;99.90
21811;DHT22;11067;48.788;9.208;2022-08-02T05:47:22;20.50;99.90
21811;DHT22;11067;48.788;9.208;2022-08-02T05:49:48;21.10;99.90
21811;DHT22;11067;48.788;9.208;2022-08-02T05:52:16;21.00;99.90
21811;DHT22;11067;48.788;9.208;2022-08-02T05:55:07;20.80;99.90
21811;DHT22;11067;48.788;9.208;2022-08-02T06:00:12;21.10;99.90
21811;DHT22;11067;48.788;9.208;2022-08-02T06:05:12;22.10;99.90
21811;DHT22;11067;48.788;9.208;2022-08-02T06:07:41;22.40;99.90
21811;DHT22;11067;48.788;9.208;2022-08-02T06:10:07;22.20;99.90
21811;DHT22;11067;48.788;9.208;2022-08-02T06:12:39;22.50;99.90
21811;DHT22;11067;48.788;9.208;2022-08-02T06:15:06;23.10;99.90
21811;DHT22;11067;48.788;9.208;2022-08-02T06:17:31;23.10;99.90
21811;DHT22;11067;48.788;9.208;2022-08-02T06:19:59;23.10;99.90
21811;DHT22;11067;48.788;9.208;2022-08-02T06:22:26;23.90;99.90
21811;DHT22;11067;48.788;9.208;2022-08-02T06:24:54;22.70;99.90
21811;DHT22;11067;48.788;9.208;2022-08-02T06:27:21;23.60;99.90
21811;DHT22;11067;48.788;9.208;2022-08-02T06:29:50;22.80;99.90
21811;DHT22;11067;48.788;9.208;2022-08-02T06:32:17;23.00;99.90
21811;DHT22;11067;48.788;9.208;2022-08-02T06:34:43;22.70;99.90
21811;DHT22;11067;48.788;9.208;2022-08-02T06:37:18;23.40;99.90
21811;DHT22;11067;48.788;9.208;2022-08-02T06:39:52;23.90;99.90
21811;DHT22;11067;48.788;9.208;2022-08-02T06:42:26;23.90;99.90
21811;DHT22;11067;48.788;9.208;2022-08-02T06:44:54;23.70;99.90
21811;DHT22;11067;48.788;9.208;2022-08-02T06:47:20;22.90;99.90
21811;DHT22;11067;48.788;9.208;2022-08-02T06:49:45;22.40;99.90
21811;DHT22;11067;48.788;9.208;2022-08-02T06:52:11;22.70;99.90
21811;DHT22;11067;48.788;9.208;2022-08-02T06:54:37;22.50;99.90
21811;DHT22;11067;48.788;9.208;2022-08-02T06:57:06;22.60;99.90
21811;DHT22;11067;48.788;9.208;2022-08-02T06:59:33;22.60;99.90
21811;DHT22;11067;48.788;9.208;2022-08-02T07:01:59;22.90;99.90
21811;DHT22;11067;48.788;9.208;2022-08-02T07:04:26;22.80;99.90
21811;DHT22;11067;48.788;9.208;2022-08-02T07:06:52;22.70;99.90
21811;DHT22;11067;48.788;9.208;2022-08-02T07:09:18;22.40;99.90
21811;DHT22;11067;48.788;9.208;2022-08-02T07:11:43;21.90;99.90
21811;DHT22;11067;48.788;9.208;2022-08-02T07:14:09;21.90;99.90
21811;DHT22;11067;48.788;9.208;2022-08-02T07:16:34;21.90;99.90
21811;DHT22;11067;48.788;9.208;2022-08-02T07:19:00;21.90;99.90
21811;DHT22;11067;48.788;9.208;2022-08-02T07:21:25;22.20;99.90
21811;DHT22;11067;48.788;9.208;2022-08-02T07:23:51;22.50;99.90
21811;DHT22;11067;48.788;9.208;2022-08-02T07:26:16;22.70;99.90
21811;DHT22;11067;48.788;9.208;2022-08-02T07:28:42;22.70;99.90
21811;DHT22;11067;48.788;9.208;2022-08-02T07:31:07;22.70;99.90
21811;DHT22;11067;48.788;9.208;2022-08-02T07:33:33;23.10;99.90
21811;DHT22;11067;48.788;9.208;2022-08-02T07:35:59;23.50;99.90
21811;DHT22;11067;48.788;9.208;2022-08-02T07:38:25;23.60;99.90
21811;DHT22;11067;48.788;9.208;2022-08-02T07:40:50;23.60;99.90
21811;DHT22;11067;48.788;9.208;2022-08-02T07:43:16;23.50;99.90
21811;DHT22;11067;48.788;9.208;2022-08-02T07:45:41;23.60;99.90
21811;DHT22;11067;48.788;9.208;2022-08-02T07:48:07;23.70;99.90
21811;DHT22;11067;48.788;9.208;2022-08-02T07:50:33;24.20;99.90
21811;DHT22;11067;48.788;9.208;2022-08-02T07:52:58;24.40;99.90
21811;DHT22;11067;48.788;9.208;2022-08-02T07:55:25;24.20;99.90
21811;DHT22;11067;48.788;9.208;2022-08-02T07:57:51;24.20;99.90
21811;DHT22;11067;48.788;9.208;2022-08-02T08:00:17;24.40;99.90
21811;DHT22;11067;48.788;9.208;2022-08-02T08:02:43;24.50;99.90
21811;DHT22;11067;48.788;9.208;2022-08-02T08:05:09;24.40;99.90
21811;DHT22;11067;48.788;9.208;2022-08-02T08:07:35;24.40;99.90
21811;DHT22;11067;48.788;9.208;2022-08-02T08:10:01;24.10;99.90
21811;DHT22;11067;48.788;9.208;2022-08-02T08:12:27;24.20;99.90
21811;DHT22;11067;48.788;9.208;2022-08-02T08:14:53;24.20;99.90
21811;DHT22;11067;48.788;9.208;2022-08-02T08:17:18;24.20;99.90
21811;DHT22;11067;48.788;9.208;2022-08-02T08:19:44;24.20;99.90
21811;DHT22;11067;48.788;9.208;2022-08-02T08:22:09;24.40;99.90
21811;DHT22;11067;48.788;9.208;2022-08-02T08:24:35;24.50;99.90
21811;DHT22;11067;48.788;9.208;2022-08-02T08:27:00;24.90;99.90
21811;DHT22;11067;48.788;9.208;2022-08-02T08:29:26;24.90;99.90
21811;DHT22;11067;48.788;9.208;2022-08-02T08:31:51;25.10;99.90
21811;DHT22;11067;48.788;9.208;2022-08-02T08:34:17;25.30;99.90
21811;DHT22;11067;48.788;9.208;2022-08-02T08:36:43;25.20;99.90
21811;DHT22;11067;48.788;9.208;2022-08-02T08:39:08;25.50;99.90
21811;DHT22;11067;48.788;9.208;2022-08-02T08:41:35;25.70;99.90
21811;DHT22;11067;48.788;9.208;2022-08-02T08:44:01;25.70;99.90
21811;DHT22;11067;48.788;9.208;2022-08-02T08:46:31;25.60;99.90
21811;DHT22;11067;48.788;9.208;2022-08-02T08:49:02;25.50;99.90
21811;DHT22;11067;48.788;9.208;2022-08-02T08:51:35;25.50;99.90
21811;DHT22;11067;48.788;9.208;2022-08-02T08:54:03;25.60;99.90
21811;DHT22;11067;48.788;9.208;2022-08-02T08:56:34;25.60;99.90
21811;DHT22;11067;48.788;9.208;2022-08-02T08:59:02;25.60;99.90
21811;DHT22;11067;48.788;9.208;2022-08-02T09:01:28;25.70;99.90
21811;DHT22;11067;48.788;9.208;2022-08-02T09:03:53;26.00;99.90
21811;DHT22;11067;48.788;9.208;2022-08-02T09:06:19;26.20;99.90
21811;DHT22;11067;48.788;9.208;2022-08-02T09:08:45;26.50;99.90
21811;DHT22;11067;48.788;9.208;2022-08-02T09:11:17;26.40;99.90
21811;DHT22;11067;48.788;9.208;2022-08-02T09:13:54;26.30;99.90
21811;DHT22;11067;48.788;9.208;2022-08-02T09:16:39;25.60;99.90
21811;DHT22;11067;48.788;9.208;2022-08-02T09:19:24;25.40;99.90
21811;DHT22;11067;48.788;9.208;2022-08-02T09:22:04;25.10;99.90
21811;DHT22;11067;48.788;9.208;2022-08-02T09:24:47;25.70;99.90
21811;DHT22;11067;48.788;9.208;2022-08-02T09:27:18;26.20;99.90
21811;DHT22;11067;48.788;9.208;2022-08-02T09:29:52;26.30;99.90
21811;DHT22;11067;48.788;9.208;2022-08-02T09:32:18;26.60;99.90
21811;DHT22;11067;48.788;9.208;2022-08-02T09:37:29;26.80;99.90
21811;DHT22;11067;48.788;9.208;2022-08-02T09:39:56;27.10;99.90
21811;DHT22;11067;48.788;9.208;2022-08-02T09:42:23;27.20;99.90
21811;DHT22;11067;48.788;9.208;2022-08-02T09:44:58;27.30;99.90
21811;DHT22;11067;48.788;9.208;2022-08-02T09:47:24;27.10;99.90
21811;DHT22;11067;48.788;9.208;2022-08-02T09:49:53;27.10;99.90
21811;DHT22;11067;48.788;9.208;2022-08-02T09:52:29;27.30;99.90
21811;DHT22;11067;48.788;9.208;2022-08-02T09:55:03;27.60;99.90
21811;DHT22;11067;48.788;9.208;2022-08-02T09:57:29;27.50;99.90
21811;DHT22;11067;48.788;9.208;2022-08-02T09:59:56;27.70;99.90
21811;DHT22;11067;48.788;9.208;2022-08-02T10:02:22;27.20;99.90
21811;DHT22;11067;48.788;9.208;2022-08-02T10:04:47;26.70;99.90
21811;DHT22;11067;48.788;9.208;2022-08-02T10:07:13;26.50;99.90
21811;DHT22;11067;48.788;9.208;2022-08-02T10:09:39;26.60;99.90
21811;DHT22;11067;48.788;9.208;2022-08-02T10:12:05;26.40;99.90
21811;DHT22;11067;48.788;9.208;2022-08-02T10:14:33;26.30;99.90
21811;DHT22;11067;48.788;9.208;2022-08-02T10:16:59;26.60;99.90
21811;DHT22;11067;48.788;9.208;2022-08-02T10:19:25;27.30;99.90
21811;DHT22;11067;48.788;9.208;2022-08-02T10:21:53;27.40;99.90
21811;DHT22;11067;48.788;9.208;2022-08-02T10:24:22;28.10;99.90
21811;DHT22;11067;48.788;9.208;2022-08-02T10:26:49;28.30;99.90
21811;DHT22;11067;48.788;9.208;2022-08-02T10:29:18;28.10;99.90
21811;DHT22;11067;48.788;9.208;2022-08-02T10:31:58;28.20;99.90
21811;DHT22;11067;48.788;9.208;2022-08-02T10:34:32;28.10;99.90
21811;DHT22;11067;48.788;9.208;2022-08-02T10:37:02;28.80;99.90
21811;DHT22;11067;48.788;9.208;2022-08-02T10:39:37;28.40;99.90
21811;DHT22;11067;48.788;9.208;2022-08-02T10:42:03;27.70;99.90
21811;DHT22;11067;48.788;9.208;2022-08-02T10:44:31;27.20;99.90
21811;DHT22;11067;48.788;9.208;2022-08-02T10:49:56;26.90;99.90
21811;DHT22;11067;48.788;9.208;2022-08-02T10:54:55;28.10;99.90
21811;DHT22;11067;48.788;9.208;2022-08-02T10:57:29;28.50;99.90
21811;DHT22;11067;48.788;9.208;2022-08-02T11:00:09;27.90;99.90
21811;DHT22;11067;48.788;9.208;2022-08-02T11:02:42;28.10;99.90
21811;DHT22;11067;48.788;9.208;2022-08-02T11:05:13;28.40;99.90
21811;DHT22;11067;48.788;9.208;2022-08-02T11:07:47;28.20;99.90
21811;DHT22;11067;48.788;9.208;2022-08-02T11:13:02;28.10;99.90
21811;DHT22;11067;48.788;9.208;2022-08-02T11:15:28;28.30;99.90
21811;DHT22;11067;48.788;9.208;2022-08-02T11:17:57;28.30;99.90
21811;DHT22;11067;48.788;9.208;2022-08-02T11:20:24;27.50;99.90
21811;DHT22;11067;48.788;9.208;2022-08-02T11:22:52;27.20;99.90
21811;DHT22;11067;48.788;9.208;2022-08-02T11:27:49;27.60;99.90
21811;DHT22;11067;48.788;9.208;2022-08-02T11:30:15;28.00;99.90
21811;DHT22;11067;48.788;9.208;2022-08-02T11:32:41;28.40;99.90
21811;DHT22;11067;48.788;9.208;2022-08-02T11:35:07;27.60;99.90
21811;DHT22;11067;48.788;9.208;2022-08-02T11:37:40;28.00;99.90
21811;DHT22;11067;48.788;9.208;2022-08-02T11:40:09;28.00;99.90
21811;DHT22;11067;48.788;9.208;2022-08-02T11:42:40;27.80;99.90
21811;DHT22;11067;48.788;9.208;2022-08-02T11:45:07;28.10;99.90
21811;DHT22;11067;48.788;9.208;2022-08-02T11:47:47;28.50;99.90
21811;DHT22;11067;48.788;9.208;2022-08-02T11:50:13;28.50;99.90
21811;DHT22;11067;48.788;9.208;2022-08-02T11:52:39;28.60;99.90
21811;DHT22;11067;48.788;9.208;2022-08-02T11:55:06;28.90;99.90
21811;DHT22;11067;48.788;9.208;2022-08-02T11:57:33;28.70;99.90
21811;DHT22;11067;48.788;9.208;2022-08-02T11:59:58;28.60;99.90
21811;DHT22;11067;48.788;9.208;2022-08-02T12:02:27;28.80;99.90
21811;DHT22;11067;48.788;9.208;2022-08-02T12:04:55;28.60;99.90
21811;DHT22;11067;48.788;9.208;2022-08-02T12:07:39;28.50;99.90
21811;DHT22;11067;48.788;9.208;2022-08-02T12:10:08;28.70;99.90
21811;DHT22;11067;48.788;9.208;2022-08-02T12:12:53;29.30;99.90
21811;DHT22;11067;48.788;9.208;2022-08-02T12:15:36;29.30;99.90
21811;DHT22;11067;48.788;9.208;2022-08-02T12:18:07;29.20;99.90
21811;DHT22;11067;48.788;9.208;2022-08-02T12:20:51;29.20;99.90
21811;DHT22;11067;48.788;9.208;2022-08-02T12:23:17;28.90;99.90
21811;DHT22;11067;48.788;9.208;2022-08-02T12:25:43;28.50;99.90
21811;DHT22;11067;48.788;9.208;2022-08-02T12:28:26;28.70;99.90
21811;DHT22;11067;48.788;9.208;2022-08-02T12:30:55;28.20;99.90
21811;DHT22;11067;48.788;9.208;2022-08-02T12:33:23;28.50;99.90
21811;DHT22;11067;48.788;9.208;2022-08-02T12:35:49;28.40;99.90
21811;DHT22;11067;48.788;9.208;2022-08-02T12:38:15;28.60;99.90
21811;DHT22;11067;48.788;9.208;2022-08-02T12:40:40;28.40;99.90
21811;DHT22;11067;48.788;9.208;2022-08-02T12:43:14;28.20;99.90
21811;DHT22;11067;48.788;9.208;2022-08-02T12:45:54;28.20;99.90
21811;DHT22;11067;48.788;9.208;2022-08-02T12:48:34;28.50;99.90
21811;DHT22;11067;48.788;9.208;2022-08-02T12:51:18;28.80;99.90
21811;DHT22;11067;48.788;9.208;2022-08-02T12:53:44;29.30;99.90
21811;DHT22;11067;48.788;9.208;2022-08-02T12:56:09;29.80;99.90
21811;DHT22;11067;48.788;9.208;2022-08-02T12:58:53;29.70;99.90
21811;DHT22;11067;48.788;9.208;2022-08-02T13:01:20;29.80;99.90
21811;DHT22;11067;48.788;9.208;2022-08-02T13:03:46;29.00;99.90
21811;DHT22;11067;48.788;9.208;2022-08-02T13:06:11;29.00;99.90
21811;DHT22;11067;48.788;9.208;2022-08-02T13:08:38;29.60;99.90
21811;DHT22;11067;48.788;9.208;2022-08-02T13:11:04;29.50;99.90
21811;DHT22;11067;48.788;9.208;2022-08-02T13:13:29;29.90;99.90
21811;DHT22;11067;48.788;9.208;2022-08-02T13:15:55;30.30;99.90
21811;DHT22;11067;48.788;9.208;2022-08-02T13:18:21;30.30;99.90
21811;DHT22;11067;48.788;9.208;2022-08-02T13:20:47;30.00;99.90
21811;DHT22;11067;48.788;9.208;2022-08-02T13:23:13;30.10;99.90
21811;DHT22;11067;48.788;9.208;2022-08-02T13:25:40;30.40;99.90
21811;DHT22;11067;48.788;9.208;2022-08-02T13:28:06;30.40;99.90
21811;DHT22;11067;48.788;9.208;2022-08-02T13:30:32;30.10;99.90
21811;DHT22;11067;48.788;9.208;2022-08-02T13:32:58;30.20;99.90
21811;DHT22;11067;48.788;9.208;2022-08-02T13:35:24;30.00;99.90
21811;DHT22;11067;48.788;9.208;2022-08-02T13:37:49;29.90;99.90
21811;DHT22;11067;48.788;9.208;2022-08-02T13:40:15;30.10;99.90
21811;DHT22;11067;48.788;9.208;2022-08-02T13:42:41;29.70;99.90
21811;DHT22;11067;48.788;9.208;2022-08-02T13:45:07;29.90;99.90
21811;DHT22;11067;48.788;9.208;2022-08-02T13:47:33;29.80;99.90
21811;DHT22;11067;48.788;9.208;2022-08-02T13:49:58;30.10;99.90
21811;DHT22;11067;48.788;9.208;2022-08-02T13:52:24;30.10;99.90
21811;DHT22;11067;48.788;9.208;2022-08-02T13:54:49;29.80;99.90
21811;DHT22;11067;48.788;9.208;2022-08-02T13:57:15;30.10;99.90
21811;DHT22;11067;48.788;9.208;2022-08-02T13:59:40;30.00;99.90
21811;DHT22;11067;48.788;9.208;2022-08-02T14:02:06;29.60;99.90
21811;DHT22;11067;48.788;9.208;2022-08-02T14:04:31;29.30;99.90
21811;DHT22;11067;48.788;9.208;2022-08-02T14:06:57;29.50;99.90
21811;DHT22;11067;48.788;9.208;2022-08-02T14:09:23;29.40;99.90
21811;DHT22;11067;48.788;9.208;2022-08-02T14:11:49;29.70;99.90
21811;DHT22;11067;48.788;9.208;2022-08-02T14:14:15;30.00;99.90
21811;DHT22;11067;48.788;9.208;2022-08-02T14:16:41;30.00;99.90
21811;DHT22;11067;48.788;9.208;2022-08-02T14:19:06;30.20;99.90
21811;DHT22;11067;48.788;9.208;2022-08-02T14:21:33;29.60;99.90
21811;DHT22;11067;48.788;9.208;2022-08-02T14:23:58;29.60;99.90
21811;DHT22;11067;48.788;9.208;2022-08-02T14:26:24;29.60;99.90
21811;DHT22;11067;48.788;9.208;2022-08-02T14:28:50;29.70;99.90
21811;DHT22;11067;48.788;9.208;2022-08-02T14:31:15;29.40;99.90
21811;DHT22;11067;48.788;9.208;2022-08-02T14:33:41;29.40;99.90
21811;DHT22;11067;48.788;9.208;2022-08-02T14:36:06;29.90;99.90
21811;DHT22;11067;48.788;9.208;2022-08-02T14:38:34;29.70;99.90
21811;DHT22;11067;48.788;9.208;2022-08-02T14:41:02;29.70;99.90
21811;DHT22;11067;48.788;9.208;2022-08-02T14:43:27;30.10;99.90
21811;DHT22;11067;48.788;9.208;2022-08-02T14:46:15;30.10;99.90
21811;DHT22;11067;48.788;9.208;2022-08-02T14:48:40;29.90;99.90
21811;DHT22;11067;48.788;9.208;2022-08-02T14:51:06;29.70;99.90
21811;DHT22;11067;48.788;9.208;2022-08-02T14:53:31;29.90;99.90
21811;DHT22;11067;48.788;9.208;2022-08-02T14:55:57;29.70;99.90
21811;DHT22;11067;48.788;9.208;2022-08-02T14:58:22;29.70;99.90
21811;DHT22;11067;48.788;9.208;2022-08-02T15:00:48;29.80;99.90
21811;DHT22;11067;48.788;9.208;2022-08-02T15:03:13;30.00;99.90
21811;DHT22;11067;48.788;9.208;2022-08-02T15:05:39;30.10;99.90
21811;DHT22;11067;48.788;9.208;2022-08-02T15:08:05;29.80;99.90
21811;DHT22;11067;48.788;9.208;2022-08-02T15:10:31;29.80;99.90
21811;DHT22;11067;48.788;9.208;2022-08-02T15:12:56;29.60;99.90
21811;DHT22;11067;48.788;9.208;2022-08-02T15:15:22;29.60;99.90
21811;DHT22;11067;48.788;9.208;2022-08-02T15:17:50;29.40;99.90
21811;DHT22;11067;48.788;9.208;2022-08-02T15:20:16;29.60;99.90
21811;DHT22;11067;48.788;9.208;2022-08-02T15:22:42;29.80;99.90
21811;DHT22;11067;48.788;9.208;2022-08-02T15:25:07;29.60;99.90
21811;DHT22;11067;48.788;9.208;2022-08-02T15:27:33;29.40;99.90
21811;DHT22;11067;48.788;9.208;2022-08-02T15:29:58;29.40;99.90
21811;DHT22;11067;48.788;9.208;2022-08-02T15:32:24;29.40;99.90
21811;DHT22;11067;48.788;9.208;2022-08-02T15:34:50;29.50;99.90
21811;DHT22;11067;48.788;9.208;2022-08-02T15:37:16;29.20;99.90
21811;DHT22;11067;48.788;9.208;2022-08-02T15:39:42;29.40;99.90
21811;DHT22;11067;48.788;9.208;2022-08-02T15:42:08;29.40;99.90
21811;DHT22;11067;48.788;9.208;2022-08-02T15:44:33;29.70;99.90
21811;DHT22;11067;48.788;9.208;2022-08-02T15:46:59;29.60;99.90
21811;DHT22;11067;48.788;9.208;2022-08-02T15:49:25;29.40;99.90
21811;DHT22;11067;48.788;9.208;2022-08-02T15:51:51;29.30;99.90
21811;DHT22;11067;48.788;9.208;2022-08-02T15:54:18;29.30;99.90